createdAt,value
2023-03-27T00:01:12.021Z,34.10
2023-03-27T00:03:40.416Z,35.13
2023-03-27T00:06:09.816Z,39.53
2023-03-27T00:08:36.848Z,48.67
2023-03-27T00:11:04.681Z,46.22
2023-03-27T00:13:31.666Z,43.90
2023-03-27T00:15:58.724Z,47.00
2023-03-27T00:18:26.796Z,42.20
2023-03-27T00:20:53.995Z,40.13
2023-03-27T00:23:22.421Z,37.30
2023-03-27T00:25:52.697Z,38.88
2023-03-27T00:28:20.379Z,37.63
2023-03-27T00:30:48.941Z,42.13
2023-03-27T00:33:15.990Z,34.45
2023-03-27T00:35:48.463Z,37.80
2023-03-27T00:38:16.599Z,37.33
2023-03-27T00:40:45.186Z,40.78
2023-03-27T00:43:34.024Z,41.60
2023-03-27T00:46:04.357Z,41.50
2023-03-27T00:48:33.010Z,34.65
2023-03-27T00:51:00.137Z,38.22
2023-03-27T00:53:28.663Z,38.05
2023-03-27T00:55:58.578Z,40.05
2023-03-27T00:58:41.600Z,37.65
2023-03-27T01:01:10.108Z,38.20
2023-03-27T01:03:37.288Z,42.92
2023-03-27T01:06:04.633Z,39.28
2023-03-27T01:08:33.877Z,41.90
2023-03-27T01:11:14.777Z,44.65
2023-03-27T01:13:57.119Z,46.30
2023-03-27T01:19:32.711Z,41.22
2023-03-27T01:22:17.937Z,40.40
2023-03-27T01:25:02.242Z,39.53
2023-03-27T01:27:40.982Z,42.67
2023-03-27T01:30:25.857Z,40.25
2023-03-27T01:33:01.802Z,32.20
2023-03-27T01:35:52.098Z,36.38
2023-03-27T01:38:56.847Z,33.45
2023-03-27T01:41:41.195Z,24.67
2023-03-27T01:44:36.460Z,26.92
2023-03-27T01:47:17.824Z,34.50
2023-03-27T01:49:46.524Z,30.73
2023-03-27T01:52:20.856Z,26.40
2023-03-27T01:54:54.967Z,25.02
2023-03-27T01:57:49.377Z,29.73
2023-03-27T02:00:21.905Z,24.85
2023-03-27T02:02:56.038Z,27.98
2023-03-27T02:05:26.165Z,22.70
2023-03-27T02:07:57.515Z,21.10
2023-03-27T02:10:28.676Z,28.67
2023-03-27T02:13:01.077Z,18.30
2023-03-27T02:15:31.866Z,24.33
2023-03-27T02:18:05.400Z,22.52
2023-03-27T02:20:33.869Z,21.05
2023-03-27T02:23:00.947Z,20.42
2023-03-27T02:25:32.430Z,22.02
2023-03-27T02:28:03.831Z,13.57
2023-03-27T02:30:35.032Z,15.20
2023-03-27T02:33:16.247Z,20.48
2023-03-27T02:35:49.105Z,20.58
2023-03-27T02:38:56.652Z,16.85
2023-03-27T02:41:26.518Z,12.25
2023-03-27T02:43:58.810Z,12.90
2023-03-27T02:49:29.978Z,8.98
2023-03-27T02:52:02.752Z,9.82
2023-03-27T02:54:36.466Z,10.98
2023-03-27T02:57:10.618Z,6.57
2023-03-27T02:59:42.497Z,8.30
2023-03-27T03:02:14.589Z,11.20
2023-03-27T03:04:46.216Z,10.45
2023-03-27T03:07:14.363Z,5.00
2023-03-27T03:09:41.853Z,9.43
2023-03-27T03:12:09.093Z,8.90
2023-03-27T03:14:39.208Z,9.27
2023-03-27T03:17:06.665Z,10.27
2023-03-27T03:19:33.560Z,8.90
2023-03-27T03:22:01.729Z,10.30
2023-03-27T03:24:29.825Z,7.00
2023-03-27T03:26:57.464Z,5.60
2023-03-27T03:29:35.519Z,7.47
2023-03-27T03:32:06.426Z,6.18
2023-03-27T03:34:33.676Z,7.28
2023-03-27T03:37:00.815Z,5.03
2023-03-27T03:39:27.754Z,6.28
2023-03-27T03:41:57.189Z,3.75
2023-03-27T03:44:24.094Z,4.80
2023-03-27T03:46:51.106Z,6.90
2023-03-27T03:49:17.985Z,8.57
2023-03-27T03:51:44.988Z,8.15
2023-03-27T03:54:12.070Z,5.68
2023-03-27T03:56:41.782Z,4.63
2023-03-27T03:59:10.084Z,4.85
2023-03-27T04:01:37.174Z,4.05
2023-03-27T04:04:04.554Z,4.85
2023-03-27T04:06:32.815Z,3.05
2023-03-27T04:08:59.792Z,1.92
2023-03-27T04:11:26.778Z,3.60
2023-03-27T04:13:53.694Z,2.25
2023-03-27T04:16:21.337Z,2.63
2023-03-27T04:19:13.668Z,3.80
2023-03-27T04:21:42.398Z,2.13
2023-03-27T04:24:09.438Z,0.80
2023-03-27T04:26:36.464Z,0.95
2023-03-27T04:29:04.235Z,4.35
2023-03-27T04:31:34.584Z,3.00
2023-03-27T04:34:03.226Z,3.90
2023-03-27T04:36:31.366Z,3.80
2023-03-27T04:38:58.298Z,2.10
2023-03-27T04:41:29.978Z,3.33
2023-03-27T04:43:56.973Z,4.55
2023-03-27T04:46:23.990Z,4.80
2023-03-27T04:48:50.935Z,3.22
2023-03-27T04:51:18.033Z,4.55
2023-03-27T04:53:44.911Z,4.22
2023-03-27T04:56:14.886Z,10.25
2023-03-27T04:58:45.783Z,4.90
2023-03-27T05:01:12.870Z,4.03
2023-03-27T05:03:40.502Z,6.40
2023-03-27T05:06:08.528Z,3.83
2023-03-27T05:08:36.049Z,3.78
2023-03-27T05:11:03.013Z,5.63
2023-03-27T05:13:29.963Z,4.20
2023-03-27T05:15:59.518Z,3.83
2023-03-27T05:18:26.565Z,3.42
2023-03-27T05:20:53.542Z,4.40
2023-03-27T05:23:21.332Z,7.22
2023-03-27T05:26:00.129Z,7.75
2023-03-27T05:28:36.708Z,4.00
2023-03-27T05:31:06.009Z,4.93
2023-03-27T05:33:32.923Z,10.13
2023-03-27T05:35:59.767Z,4.95
2023-03-27T05:38:26.801Z,2.58
2023-03-27T05:40:53.790Z,2.55
2023-03-27T05:43:20.632Z,3.38
2023-03-27T05:45:47.487Z,3.53
2023-03-27T05:48:14.375Z,6.00
2023-03-27T05:50:41.749Z,2.03
2023-03-27T05:53:12.775Z,3.65
2023-03-27T05:55:39.759Z,4.25
2023-03-27T05:58:11.808Z,4.30
2023-03-27T06:00:42.067Z,3.92
2023-03-27T06:03:11.197Z,5.15
2023-03-27T06:05:40.535Z,3.90
2023-03-27T06:08:09.634Z,3.38
2023-03-27T06:10:36.755Z,6.35
2023-03-27T06:13:06.499Z,3.67
2023-03-27T06:15:33.896Z,4.70
2023-03-27T06:18:00.890Z,5.72
2023-03-27T06:20:28.154Z,6.70
2023-03-27T06:23:03.465Z,6.00
2023-03-27T06:25:34.768Z,7.13
2023-03-27T06:28:04.643Z,4.32
2023-03-27T06:30:31.681Z,3.83
2023-03-27T06:32:59.760Z,3.40
2023-03-27T06:35:29.964Z,3.35
2023-03-27T06:37:59.130Z,3.38
2023-03-27T06:40:28.232Z,2.17
2023-03-27T06:42:56.548Z,2.60
2023-03-27T06:45:26.113Z,2.15
2023-03-27T06:48:17.027Z,2.42
2023-03-27T06:50:47.546Z,1.75
2023-03-27T06:53:26.727Z,2.50
2023-03-27T06:55:54.794Z,1.70
2023-03-27T06:58:22.002Z,1.75
2023-03-27T07:00:49.772Z,2.35
2023-03-27T07:03:18.110Z,5.30
2023-03-27T07:05:45.731Z,2.78
2023-03-27T07:08:23.281Z,2.28
2023-03-27T07:11:03.822Z,2.58
2023-03-27T07:13:41.333Z,1.77
2023-03-27T07:16:09.944Z,1.08
2023-03-27T07:18:37.003Z,4.38
2023-03-27T07:21:03.880Z,1.65
2023-03-27T07:23:30.952Z,2.63
2023-03-27T07:25:59.588Z,1.25
2023-03-27T07:28:26.920Z,0.95
2023-03-27T07:30:53.746Z,2.67
2023-03-27T07:33:20.793Z,1.38
2023-03-27T07:35:48.647Z,1.38
2023-03-27T07:38:16.743Z,3.03
2023-03-27T07:40:46.205Z,0.65
2023-03-27T07:43:13.684Z,1.10
2023-03-27T07:45:41.721Z,0.98
2023-03-27T07:48:17.092Z,2.40
2023-03-27T07:50:45.345Z,0.47
2023-03-27T07:53:33.362Z,1.42
2023-03-27T07:55:59.843Z,1.58
2023-03-27T07:58:28.044Z,4.43
2023-03-27T08:01:02.432Z,2.53
2023-03-27T08:03:30.445Z,1.58
2023-03-27T08:05:59.464Z,2.40
2023-03-27T08:08:26.627Z,0.80
2023-03-27T08:10:58.162Z,2.15
2023-03-27T08:13:25.205Z,2.53
2023-03-27T08:15:53.016Z,1.55
2023-03-27T08:18:20.209Z,0.98
2023-03-27T08:20:48.466Z,0.55
2023-03-27T08:23:15.408Z,4.28
2023-03-27T08:25:43.096Z,2.65
2023-03-27T08:28:10.030Z,2.03
2023-03-27T08:30:37.023Z,0.60
2023-03-27T08:33:04.055Z,2.20
2023-03-27T08:35:31.162Z,1.13
2023-03-27T08:37:58.309Z,2.80
2023-03-27T08:40:28.375Z,1.50
2023-03-27T08:42:58.930Z,2.50
2023-03-27T08:45:44.354Z,1.17
2023-03-27T08:48:25.326Z,0.80
2023-03-27T08:50:58.600Z,0.70
2023-03-27T08:53:38.368Z,0.47
2023-03-27T08:56:05.689Z,4.30
2023-03-27T08:58:34.633Z,0.85
2023-03-27T09:01:26.521Z,2.45
2023-03-27T09:04:05.816Z,2.10
2023-03-27T09:06:39.713Z,1.27
2023-03-27T09:09:09.603Z,1.13
2023-03-27T09:12:01.645Z,1.02
2023-03-27T09:14:33.504Z,1.30
2023-03-27T09:17:10.928Z,0.70
2023-03-27T09:19:54.419Z,1.20
2023-03-27T09:22:31.294Z,1.27
2023-03-27T09:25:02.619Z,0.68
2023-03-27T09:27:34.773Z,1.43
2023-03-27T09:30:11.192Z,1.00
2023-03-27T09:32:39.077Z,1.38
2023-03-27T09:35:15.643Z,0.95
2023-03-27T09:37:43.035Z,1.25
2023-03-27T09:40:33.950Z,0.95
2023-03-27T09:43:08.835Z,0.82
2023-03-27T09:45:40.747Z,5.43
2023-03-27T09:48:14.653Z,1.83
2023-03-27T09:50:47.364Z,2.30
2023-03-27T09:53:16.002Z,1.77
2023-03-27T09:56:13.049Z,1.85
2023-03-27T09:58:46.299Z,1.13
2023-03-27T10:01:36.265Z,2.33
2023-03-27T10:04:13.928Z,3.22
2023-03-27T10:06:48.198Z,1.10
2023-03-27T10:09:23.284Z,1.60
2023-03-27T10:11:51.421Z,2.70
2023-03-27T10:14:20.080Z,0.80
2023-03-27T10:16:47.883Z,0.70
2023-03-27T10:19:29.693Z,1.05
2023-03-27T10:21:57.258Z,0.98
2023-03-27T10:24:45.342Z,1.50
2023-03-27T10:27:22.068Z,2.08
2023-03-27T10:29:48.972Z,3.70
2023-03-27T10:32:15.810Z,0.82
2023-03-27T10:34:54.657Z,7.85
2023-03-27T10:37:34.305Z,3.22
2023-03-27T10:40:07.972Z,1.00
2023-03-27T10:42:36.583Z,1.20
2023-03-27T10:45:04.328Z,2.95
2023-03-27T10:47:32.818Z,2.53
2023-03-27T10:50:27.815Z,10.38
2023-03-27T10:53:24.726Z,1.35
2023-03-27T10:56:02.448Z,2.78
2023-03-27T10:58:47.862Z,7.57
2023-03-27T11:01:34.869Z,0.50
2023-03-27T11:04:04.731Z,3.10
2023-03-27T11:06:34.311Z,2.25
2023-03-27T11:09:11.095Z,2.60
2023-03-27T11:11:45.534Z,2.15
2023-03-27T11:14:19.280Z,0.65
2023-03-27T11:16:50.057Z,1.25
2023-03-27T11:20:16.309Z,4.18
2023-03-27T11:22:51.505Z,4.15
2023-03-27T11:25:31.867Z,4.70
2023-03-27T11:28:09.708Z,20.73
2023-03-27T11:30:38.694Z,6.30
2023-03-27T11:33:26.157Z,5.45
2023-03-27T11:36:20.032Z,3.28
2023-03-27T11:38:53.279Z,1.80
2023-03-27T11:41:20.579Z,14.98
2023-03-27T11:43:47.554Z,2.35
2023-03-27T11:46:33.061Z,2.83
2023-03-27T11:49:09.564Z,4.45
2023-03-27T11:52:14.077Z,4.80
2023-03-27T11:54:47.989Z,1.15
2023-03-27T11:57:24.813Z,2.42
2023-03-27T12:00:16.403Z,2.00
2023-03-27T12:03:06.866Z,1.27
2023-03-27T12:06:09.596Z,5.25
2023-03-27T12:08:55.625Z,3.38
2023-03-27T12:11:23.210Z,1.50
2023-03-27T12:14:23.976Z,1.30
2023-03-27T12:17:20.484Z,1.58
2023-03-27T12:20:21.310Z,1.38
2023-03-27T12:23:06.402Z,1.13
2023-03-27T12:25:52.151Z,3.08
2023-03-27T12:28:24.935Z,2.95
2023-03-27T12:31:39.563Z,7.57
2023-03-27T12:34:31.605Z,8.30
2023-03-27T12:36:59.503Z,1.08
2023-03-27T12:39:27.750Z,0.93
2023-03-27T12:41:54.601Z,1.15
2023-03-27T12:44:30.256Z,1.65
2023-03-27T12:47:18.133Z,1.23
2023-03-27T12:49:48.416Z,2.88
2023-03-27T12:52:15.740Z,5.20
2023-03-27T12:55:14.258Z,5.35
2023-03-27T12:57:46.044Z,3.45
2023-03-27T13:00:26.008Z,2.17
2023-03-27T13:03:10.314Z,0.50
2023-03-27T13:05:55.761Z,2.53
2023-03-27T13:08:45.129Z,9.48
2023-03-27T13:11:30.169Z,6.82
2023-03-27T13:14:18.632Z,23.42
2023-03-27T13:17:19.477Z,9.73
2023-03-27T13:19:52.576Z,5.03
2023-03-27T13:22:42.882Z,3.20
2023-03-27T13:25:12.639Z,2.20
2023-03-27T13:28:01.447Z,3.00
2023-03-27T13:30:47.353Z,2.08
2023-03-27T13:33:16.331Z,1.13
2023-03-27T13:36:12.235Z,1.10
2023-03-27T13:38:52.791Z,3.58
2023-03-27T13:41:45.061Z,3.83
2023-03-27T13:44:26.720Z,2.08
2023-03-27T13:47:09.054Z,1.92
2023-03-27T13:49:45.553Z,2.65
2023-03-27T13:52:14.412Z,2.42
2023-03-27T13:55:27.945Z,1.35
2023-03-27T13:58:19.031Z,2.08
2023-03-27T14:01:17.315Z,3.33
2023-03-27T14:04:06.299Z,2.53
2023-03-27T14:06:52.083Z,1.90
2023-03-27T14:09:40.051Z,1.13
2023-03-27T14:12:25.323Z,4.10
2023-03-27T14:15:21.156Z,2.00
2023-03-27T14:18:21.638Z,2.00
2023-03-27T14:20:55.063Z,1.63
2023-03-27T14:23:43.286Z,2.13
2023-03-27T14:26:18.585Z,1.60
2023-03-27T14:29:00.866Z,2.83
2023-03-27T14:31:35.518Z,1.63
2023-03-27T14:34:24.776Z,3.05
2023-03-27T14:36:52.429Z,2.28
2023-03-27T14:39:22.554Z,2.70
2023-03-27T14:41:53.998Z,2.63
2023-03-27T14:44:21.526Z,3.77
2023-03-27T14:46:49.312Z,1.25
2023-03-27T14:49:24.530Z,1.83
2023-03-27T14:51:53.545Z,3.63
2023-03-27T14:54:27.364Z,0.80
2023-03-27T14:56:57.260Z,4.00
2023-03-27T14:59:31.623Z,1.90
2023-03-27T15:01:59.671Z,1.55
2023-03-27T15:04:28.008Z,4.57
2023-03-27T15:07:30.675Z,10.50
2023-03-27T15:10:24.708Z,1.90
2023-03-27T15:12:51.940Z,1.60
2023-03-27T15:15:27.289Z,1.70
2023-03-27T15:17:54.971Z,2.03
2023-03-27T15:20:27.776Z,1.92
2023-03-27T15:23:07.174Z,2.78
2023-03-27T15:25:42.723Z,2.08
2023-03-27T15:28:16.562Z,2.53
2023-03-27T15:30:47.819Z,2.17
2023-03-27T15:33:34.156Z,3.17
2023-03-27T15:36:05.480Z,3.25
2023-03-27T15:38:34.380Z,2.10
2023-03-27T15:41:24.286Z,1.30
2023-03-27T15:43:52.393Z,3.78
2023-03-27T15:46:20.679Z,3.28
2023-03-27T15:48:55.425Z,4.20
2023-03-27T15:51:22.278Z,2.20
2023-03-27T15:53:53.752Z,2.15
2023-03-27T15:56:41.431Z,2.08
2023-03-27T15:59:14.256Z,4.68
2023-03-27T16:01:44.166Z,1.45
2023-03-27T16:04:24.403Z,1.42
2023-03-27T16:06:55.611Z,2.35
2023-03-27T16:09:28.360Z,1.42
2023-03-27T16:11:57.161Z,1.67
2023-03-27T16:14:40.741Z,6.82
2023-03-27T16:17:20.592Z,1.77
2023-03-27T16:19:56.431Z,1.10
2023-03-27T16:22:29.397Z,2.75
2023-03-27T16:24:57.466Z,1.35
2023-03-27T16:27:31.959Z,1.83
2023-03-27T16:29:58.950Z,2.30
2023-03-27T16:32:25.929Z,3.17
2023-03-27T16:34:52.796Z,2.88
2023-03-27T16:37:23.999Z,2.15
2023-03-27T16:39:51.081Z,2.30
2023-03-27T16:42:25.801Z,1.38
2023-03-27T16:44:53.705Z,1.52
2023-03-27T16:47:23.222Z,2.13
2023-03-27T16:50:03.559Z,3.95
2023-03-27T16:52:37.600Z,3.28
2023-03-27T16:55:07.420Z,4.72
2023-03-27T16:57:36.076Z,6.80
2023-03-27T17:00:03.548Z,5.03
2023-03-27T17:02:32.065Z,3.55
2023-03-27T17:05:02.305Z,4.57
2023-03-27T17:07:29.397Z,4.05
2023-03-27T17:09:56.344Z,3.28
2023-03-27T17:12:23.393Z,4.65
2023-03-27T17:14:50.256Z,3.55
2023-03-27T17:17:17.274Z,3.90
2023-03-27T17:19:44.124Z,3.53
2023-03-27T17:22:15.783Z,3.63
2023-03-27T17:24:55.398Z,6.10
2023-03-27T17:27:25.861Z,6.80
2023-03-27T17:29:52.811Z,4.28
2023-03-27T17:32:19.764Z,3.55
2023-03-27T17:34:46.756Z,4.93
2023-03-27T17:37:13.580Z,3.53
2023-03-27T17:39:41.104Z,4.00
2023-03-27T17:42:08.034Z,4.22
2023-03-27T17:44:35.014Z,3.83
2023-03-27T17:47:03.309Z,7.82
2023-03-27T17:49:31.863Z,3.95
2023-03-27T17:51:58.764Z,3.58
2023-03-27T17:54:26.825Z,4.35
2023-03-27T17:56:53.712Z,7.07
2023-03-27T17:59:21.132Z,5.88
2023-03-27T18:01:48.621Z,6.22
2023-03-27T18:04:15.596Z,7.28
2023-03-27T18:06:45.263Z,4.80
2023-03-27T18:09:12.256Z,4.60
2023-03-27T18:11:39.233Z,3.47
2023-03-27T18:14:06.071Z,7.18
2023-03-27T18:16:32.999Z,7.50
2023-03-27T18:19:02.484Z,6.88
2023-03-27T18:21:29.503Z,8.10
2023-03-27T18:23:59.675Z,6.85
2023-03-27T18:26:26.716Z,8.45
2023-03-27T18:28:54.954Z,7.05
2023-03-27T18:31:21.941Z,8.15
2023-03-27T18:33:48.824Z,14.70
2023-03-27T18:36:16.113Z,12.25
2023-03-27T18:38:43.287Z,11.95
2023-03-27T18:41:10.628Z,21.52
2023-03-27T18:43:37.529Z,23.65
2023-03-27T18:46:07.110Z,21.63
2023-03-27T18:48:34.875Z,28.08
2023-03-27T18:51:03.948Z,24.00
2023-03-27T18:53:30.971Z,26.02
2023-03-27T18:55:58.612Z,21.90
2023-03-27T18:58:27.793Z,28.55
2023-03-27T19:00:56.988Z,31.23
2023-03-27T19:03:26.326Z,30.85
2023-03-27T19:05:53.576Z,38.15
2023-03-27T19:08:21.203Z,41.00
2023-03-27T19:10:48.155Z,37.13
2023-03-27T19:13:16.087Z,46.83
2023-03-27T19:15:43.170Z,60.13
2023-03-27T19:18:10.251Z,99.70
2023-03-27T19:20:37.169Z,99.05
2023-03-27T19:23:04.453Z,89.22
2023-03-27T19:25:34.133Z,82.43
2023-03-27T19:28:06.454Z,89.55
2023-03-27T19:30:33.728Z,86.45
2023-03-27T19:33:03.087Z,89.45
2023-03-27T19:35:29.953Z,91.40
2023-03-27T19:37:56.858Z,95.55
2023-03-27T19:40:26.685Z,100.03
2023-03-27T19:42:53.625Z,127.22
2023-03-27T19:45:20.456Z,122.85
2023-03-27T19:47:47.768Z,124.45
2023-03-27T19:50:14.999Z,119.22
2023-03-27T19:52:49.473Z,127.75
2023-03-27T19:55:25.380Z,113.63
2023-03-27T19:57:54.899Z,114.20
2023-03-27T20:00:22.410Z,127.50
2023-03-27T20:02:49.355Z,137.20
2023-03-27T20:05:16.446Z,152.40
2023-03-27T20:07:43.375Z,156.75
2023-03-27T20:10:13.561Z,137.55
2023-03-27T20:12:40.580Z,124.60
2023-03-27T20:15:12.289Z,101.30
2023-03-27T20:20:07.409Z,110.57
2023-03-27T20:22:40.743Z,123.13
2023-03-27T20:25:14.743Z,126.75
2023-03-27T20:27:41.753Z,116.38
2023-03-27T20:30:14.319Z,128.00
2023-03-27T20:32:42.027Z,128.73
2023-03-27T20:35:20.519Z,130.07
2023-03-27T20:37:56.492Z,119.47
2023-03-27T20:40:24.346Z,118.28
2023-03-27T20:43:03.046Z,120.80
2023-03-27T20:45:31.212Z,118.72
2023-03-27T20:48:04.364Z,102.72
2023-03-27T20:50:35.513Z,89.03
2023-03-27T20:53:04.583Z,97.60
2023-03-27T20:55:34.729Z,84.30
2023-03-27T20:58:06.626Z,84.03
2023-03-27T21:00:34.024Z,81.43
2023-03-27T21:03:01.486Z,85.97
2023-03-27T21:05:28.720Z,88.57
2023-03-27T21:07:56.552Z,91.13
2023-03-27T21:10:24.647Z,89.75
2023-03-27T21:12:52.777Z,94.28
2023-03-27T21:15:21.185Z,110.57
2023-03-27T21:17:48.133Z,107.97
2023-03-27T21:20:15.657Z,81.03
2023-03-27T21:22:42.608Z,74.63
2023-03-27T21:25:09.741Z,76.03
2023-03-27T21:27:36.581Z,67.85
2023-03-27T21:30:04.357Z,53.05
2023-03-27T21:32:31.493Z,57.75
2023-03-27T21:34:58.517Z,70.68
2023-03-27T21:37:25.646Z,64.15
2023-03-27T21:39:52.595Z,66.68
2023-03-27T21:42:21.820Z,71.32
2023-03-27T21:44:52.968Z,77.07
2023-03-27T21:47:22.102Z,78.80
2023-03-27T21:49:49.141Z,90.88
2023-03-27T21:52:16.339Z,80.35
2023-03-27T21:54:49.989Z,78.05
2023-03-27T21:57:27.343Z,86.57
2023-03-27T21:59:54.356Z,90.38
2023-03-27T22:02:21.748Z,72.47
2023-03-27T22:04:48.713Z,68.18
2023-03-27T22:07:15.796Z,72.95
2023-03-27T22:09:44.730Z,76.43
2023-03-27T22:12:14.293Z,73.13
2023-03-27T22:14:41.382Z,78.65
2023-03-27T22:17:08.706Z,73.15
2023-03-27T22:19:35.577Z,58.05
2023-03-27T22:22:02.538Z,49.10
2023-03-27T22:24:32.013Z,41.15
2023-03-27T22:26:58.940Z,45.65
2023-03-27T22:29:26.028Z,42.85
2023-03-27T22:31:52.922Z,46.38
2023-03-27T22:34:19.785Z,50.60
2023-03-27T22:36:46.679Z,41.50
2023-03-27T22:39:13.760Z,43.80
2023-03-27T22:41:40.706Z,34.08
2023-03-27T22:44:07.604Z,40.70
2023-03-27T22:46:34.627Z,44.33
2023-03-27T22:49:01.543Z,39.22
2023-03-27T22:51:29.912Z,34.67
2023-03-27T22:53:57.364Z,34.95
2023-03-27T22:56:24.643Z,30.15
2023-03-27T22:58:51.514Z,38.42
2023-03-27T23:01:18.433Z,35.38
2023-03-27T23:03:45.475Z,40.72
2023-03-27T23:06:18.036Z,37.10
2023-03-27T23:08:44.906Z,44.00
2023-03-27T23:11:13.316Z,41.35
2023-03-27T23:13:40.301Z,40.60
2023-03-27T23:16:08.605Z,35.25
2023-03-27T23:18:35.759Z,31.65
2023-03-27T23:21:05.880Z,34.60
2023-03-27T23:23:34.159Z,43.47
2023-03-27T23:26:03.195Z,41.13
2023-03-27T23:28:36.219Z,34.70
2023-03-27T23:31:05.527Z,31.73
2023-03-27T23:33:40.711Z,32.33
2023-03-27T23:36:12.992Z,35.65
2023-03-27T23:38:41.427Z,26.15
2023-03-27T23:41:10.114Z,33.88
2023-03-27T23:43:39.657Z,29.48
2023-03-27T23:46:10.505Z,30.65
2023-03-27T23:48:42.389Z,30.90
2023-03-27T23:51:10.791Z,34.53
2023-03-27T23:53:38.018Z,31.85
2023-03-27T23:56:05.604Z,28.38
2023-03-27T23:58:32.921Z,23.10
